Time;durP1;ratioP1;P1;durP2;ratioP2;P2;SDS_P1;SDS_P2;PMS_P1;PMS_P2;Temp;Humidity;BMP_temperature;BMP_pressure;BME280_temperature;BME280_humidity;BME280_pressure;Samples;Min_cycle;Max_cycle;Signal;HPM_P1;HPM_P2
2023/12/12 00:00:29;;;;;;;24.67;7.38;;;;;;;5.94;100.00;100687.84;5084953;28;20028;-72
2023/12/12 00:02:57;;;;;;;25.13;7.05;;;;;;;5.93;100.00;100700.94;5087364;28;20115;-74
2023/12/12 00:05:23;;;;;;;23.27;7.25;;;;;;;5.91;100.00;100694.75;5084393;28;20028;-72
2023/12/12 00:07:48;;;;;;;23.25;7.00;;;;;;;5.97;100.00;100701.88;5086383;28;20107;-73
2023/12/12 00:10:13;;;;;;;25.90;7.10;;;;;;;6.00;100.00;100696.72;5084840;28;20028;-74
2023/12/12 00:12:39;;;;;;;24.00;7.22;;;;;;;6.07;100.00;100698.63;5086662;28;20064;-74
2023/12/12 00:15:05;;;;;;;23.20;7.63;;;;;;;6.10;100.00;100701.31;5085726;28;20471;-74
2023/12/12 00:17:30;;;;;;;23.65;7.10;;;;;;;6.16;100.00;100698.81;5085299;28;20028;-69
2023/12/12 00:19:55;;;;;;;24.05;7.13;;;;;;;6.18;100.00;100707.59;5086914;28;20044;-73
2023/12/12 00:22:21;;;;;;;24.10;7.72;;;;;;;6.15;100.00;100699.66;5083862;28;20068;-73
2023/12/12 00:24:46;;;;;;;23.20;7.60;;;;;;;6.16;100.00;100701.44;5087373;28;20047;-73
2023/12/12 00:27:11;;;;;;;25.48;7.75;;;;;;;6.10;100.00;100701.31;5084509;28;20044;-74
2023/12/12 00:29:38;;;;;;;23.73;7.70;;;;;;;6.04;100.00;100699.47;5086227;28;20471;-74
2023/12/12 00:32:04;;;;;;;25.63;7.70;;;;;;;6.01;100.00;100699.38;5085549;28;20032;-73
2023/12/12 00:34:29;;;;;;;25.73;7.72;;;;;;;5.97;100.00;100701.88;5084646;28;20056;-70
2023/12/12 00:36:55;;;;;;;23.73;7.80;;;;;;;5.90;100.00;100707.00;5086932;28;20363;-73
2023/12/12 00:39:20;;;;;;;23.20;7.40;;;;;;;5.88;100.00;100708.72;5083753;28;20109;-74
2023/12/12 00:41:47;;;;;;;25.83;7.82;;;;;;;5.84;100.00;100709.50;5087018;28;20028;-74
2023/12/12 00:44:12;;;;;;;25.48;7.50;;;;;;;5.83;100.00;100710.34;5084344;28;20028;-71
2023/12/12 00:46:37;;;;;;;25.63;7.88;;;;;;;5.81;100.00;100701.56;5085537;28;20039;-74
2023/12/12 00:49:03;;;;;;;23.70;7.65;;;;;;;5.79;100.00;100692.75;5085190;28;20036;-74
2023/12/12 00:51:28;;;;;;;23.42;7.45;;;;;;;5.80;100.00;100694.53;5082704;28;20036;-73
2023/12/12 00:53:54;;;;;;;26.90;8.38;;;;;;;5.79;100.00;100697.13;5085419;28;20028;-74
2023/12/12 00:56:19;;;;;;;25.88;8.38;;;;;;;5.78;100.00;100692.72;5082427;28;20028;-71
2023/12/12 00:58:44;;;;;;;24.83;8.30;;;;;;;5.77;100.00;100704.97;5085377;28;20457;-69
2023/12/12 01:01:13;;;;;;;26.60;8.10;;;;;;;5.77;100.00;100702.34;5083022;28;20065;-72
2023/12/12 01:03:39;;;;;;;27.75;8.40;;;;;;;5.77;100.00;100694.47;5084254;28;20056;-70
2023/12/12 01:06:05;;;;;;;24.55;7.78;;;;;;;5.77;100.00;100686.63;5084035;28;20066;-74
2023/12/12 01:08:30;;;;;;;25.67;8.02;;;;;;;5.73;100.00;100683.03;5082930;28;20525;-74
2023/12/12 01:10:56;;;;;;;26.38;8.00;;;;;;;5.67;100.00;100687.28;5084894;28;20032;-74
2023/12/12 01:13:21;;;;;;;26.38;8.27;;;;;;;5.66;100.00;100688.09;5082126;28;20493;-74
2023/12/12 01:15:46;;;;;;;26.42;8.23;;;;;;;5.58;100.00;100687.94;5085274;28;20521;-72
2023/12/12 01:18:12;;;;;;;29.67;8.75;;;;;;;5.53;100.00;100690.47;5082732;28;20032;-74
2023/12/12 01:20:37;;;;;;;26.67;8.43;;;;;;;5.51;100.00;100681.66;5084021;28;20032;-74
2023/12/12 01:23:02;;;;;;;28.92;8.73;;;;;;;5.48;100.00;100680.72;5083675;28;20036;-74
2023/12/12 01:25:29;;;;;;;28.85;8.40;;;;;;;5.46;100.00;100680.69;5082610;28;20028;-75
2023/12/12 01:27:54;;;;;;;27.20;8.60;;;;;;;5.45;100.00;100678.03;5084831;28;20107;-73
2023/12/12 01:30:20;;;;;;;28.35;8.57;;;;;;;5.45;100.00;100665.81;5081481;28;20450;-74
2023/12/12 01:32:45;;;;;;;27.58;8.35;;;;;;;5.49;100.00;100667.66;5084901;28;20024;-72
2023/12/12 01:35:11;;;;;;;26.15;8.15;;;;;;;5.46;100.00;100677.16;5082446;28;20020;-74
2023/12/12 01:37:36;;;;;;;28.25;8.45;;;;;;;5.41;100.00;100663.97;5083244;28;20094;-74
2023/12/12 01:40:01;;;;;;;27.55;8.30;;;;;;;5.36;100.00;100665.63;5083894;28;20032;-74
2023/12/12 01:42:27;;;;;;;27.23;8.85;;;;;;;5.28;100.00;100667.16;5082143;28;20044;-73
2023/12/12 01:44:52;;;;;;;27.67;9.00;;;;;;;5.22;100.00;100660.03;5084922;28;20053;-67
2023/12/12 01:47:18;;;;;;;28.38;8.73;;;;;;;5.18;100.00;100666.94;5081550;28;20090;-73
2023/12/12 01:49:44;;;;;;;27.38;8.63;;;;;;;5.13;100.00;100662.47;5046140;28;1090420;-73
2023/12/12 01:52:10;;;;;;;28.83;9.15;;;;;;;5.14;100.00;100675.59;5083627;28;20423;-69
2023/12/12 01:54:38;;;;;;;29.60;9.30;;;;;;;5.13;100.00;100672.94;5084138;28;20036;-74
2023/12/12 01:57:04;;;;;;;29.00;9.32;;;;;;;5.13;100.00;100671.19;5084121;28;20500;-74
2023/12/12 01:59:30;;;;;;;27.50;8.88;;;;;;;5.12;100.00;100671.16;5082876;28;20535;-71
2023/12/12 02:01:56;;;;;;;29.50;9.45;;;;;;;5.10;100.00;100668.50;5084372;28;20032;-74
2023/12/12 02:04:21;;;;;;;30.15;9.52;;;;;;;5.05;100.00;100670.13;5081965;28;20024;-73
2023/12/12 02:06:48;;;;;;;30.10;9.68;;;;;;;5.02;100.00;100670.03;5085287;28;20047;-74
2023/12/12 02:09:15;;;;;;;31.25;9.63;;;;;;;5.04;100.00;100668.38;5082508;28;20028;-72
2023/12/12 02:11:40;;;;;;;30.25;9.93;;;;;;;4.97;100.00;100664.69;5084134;28;20028;-69
2023/12/12 02:14:08;;;;;;;29.48;9.60;;;;;;;5.03;100.00;100677.06;5083702;28;20379;-74
2023/12/12 02:16:33;;;;;;;30.48;8.98;;;;;;;5.04;100.00;100670.97;5083407;28;20055;-74
2023/12/12 02:18:59;;;;;;;33.47;9.60;;;;;;;5.04;100.00;100658.75;5084885;28;20466;-74
2023/12/12 02:21:24;;;;;;;31.80;9.18;;;;;;;5.04;100.00;100658.75;5082086;28;20087;-73
2023/12/12 02:23:49;;;;;;;31.25;9.38;;;;;;;5.01;100.00;100660.41;5085121;28;20036;-73
2023/12/12 02:26:15;;;;;;;31.63;9.15;;;;;;;5.03;100.00;100651.75;5081942;28;20123;-74
2023/12/12 02:28:41;;;;;;;32.50;9.77;;;;;;;5.02;100.00;100654.31;5084108;28;20506;-73
2023/12/12 02:31:06;;;;;;;29.15;8.98;;;;;;;4.96;100.00;100651.56;5083085;28;20036;-74
2023/12/12 02:33:32;;;;;;;33.60;9.15;;;;;;;4.97;100.00;100650.72;5082567;28;20035;-74
2023/12/12 02:35:57;;;;;;;33.83;9.38;;;;;;;4.93;100.00;100647.13;5084585;28;20024;-74
2023/12/12 02:38:22;;;;;;;33.08;9.40;;;;;;;4.91;100.00;100645.31;5081290;28;20066;-74
2023/12/12 02:40:47;;;;;;;34.22;10.10;;;;;;;4.85;100.00;100646.94;5083368;28;20059;-74
2023/12/12 02:43:13;;;;;;;36.47;10.23;;;;;;;4.89;100.00;100653.13;5082333;28;20040;-74
2023/12/12 02:45:38;;;;;;;33.55;9.95;;;;;;;4.85;100.00;100646.94;5083248;28;20511;-74
2023/12/12 02:48:04;;;;;;;34.08;9.82;;;;;;;4.78;100.00;100637.16;5083413;28;20032;-74
2023/12/12 02:50:29;;;;;;;32.33;9.80;;;;;;;4.75;100.00;100639.72;5081863;28;20059;-73
2023/12/12 02:52:55;;;;;;;37.78;10.55;;;;;;;4.75;100.00;100650.19;5084432;28;20122;-73
2023/12/12 02:55:20;;;;;;;32.30;10.15;;;;;;;4.70;100.00;100649.19;5081538;28;20421;-72
2023/12/12 02:57:45;;;;;;;36.10;10.38;;;;;;;4.69;100.00;100652.66;5083990;28;20028;-74
2023/12/12 03:00:11;;;;;;;32.75;9.75;;;;;;;4.64;100.00;100651.66;5081997;28;20103;-73
2023/12/12 03:02:36;;;;;;;36.30;10.13;;;;;;;4.65;100.00;100650.81;5082724;28;20063;-73
2023/12/12 03:05:04;;;;;;;33.72;10.40;;;;;;;4.60;100.00;100644.56;5083490;28;20036;-74
2023/12/12 03:07:30;;;;;;;36.65;9.55;;;;;;;4.57;100.00;100647.09;5081578;28;20123;-71
2023/12/12 03:09:55;;;;;;;34.95;9.35;;;;;;;4.56;100.00;100646.22;5084438;28;20056;-74
2023/12/12 03:12:20;;;;;;;36.25;9.52;;;;;;;4.56;100.00;100643.59;5080864;28;20029;-73
2023/12/12 03:14:46;;;;;;;36.25;9.23;;;;;;;4.56;100.00;100637.47;5083947;28;20545;-73
2023/12/12 03:17:11;;;;;;;35.97;9.43;;;;;;;4.52;100.00;100632.16;5082053;28;20423;-74
2023/12/12 03:19:36;;;;;;;33.40;9.60;;;;;;;4.48;100.00;100625.06;5082529;28;20036;-74
2023/12/12 03:22:02;;;;;;;35.60;9.27;;;;;;;4.46;100.00;100626.78;5083082;28;20090;-74
2023/12/12 03:24:27;;;;;;;35.97;9.70;;;;;;;4.46;100.00;100618.91;5081296;28;20036;-74
2023/12/12 03:26:53;;;;;;;32.28;9.10;;;;;;;4.43;100.00;100625.81;5084382;28;20432;-74
2023/12/12 03:29:18;;;;;;;36.42;9.40;;;;;;;4.44;100.00;100622.34;5080991;28;20407;-74
2023/12/12 03:31:43;;;;;;;37.45;9.65;;;;;;;4.42;100.00;100624.03;5083569;28;20109;-74
2023/12/12 03:34:09;;;;;;;38.05;9.40;;;;;;;4.38;100.00;100623.06;5082046;28;20111;-74
2023/12/12 03:36:35;;;;;;;33.42;9.45;;;;;;;4.38;100.00;100623.06;5082218;28;20028;-74
2023/12/12 03:39:01;;;;;;;36.00;9.50;;;;;;;4.39;100.00;100618.72;5083451;28;20080;-74
2023/12/12 03:41:28;;;;;;;37.47;9.82;;;;;;;4.37;100.00;100621.31;5080715;28;20103;-73
2023/12/12 03:43:53;;;;;;;38.60;10.30;;;;;;;4.38;100.00;100615.19;5084482;28;20020;-69
2023/12/12 03:46:20;;;;;;;38.88;10.13;;;;;;;4.42;100.00;100616.19;5080536;28;20406;-75
2023/12/12 03:48:45;;;;;;;37.17;10.27;;;;;;;4.46;100.00;100607.56;5083436;28;20383;-74
2023/12/12 03:51:11;;;;;;;37.83;10.68;;;;;;;4.51;100.00;100600.69;5081557;28;20181;-74
2023/12/12 03:53:37;;;;;;;40.33;11.07;;;;;;;4.57;100.00;100587.75;5082027;28;20072;-72
2023/12/12 03:56:03;;;;;;;35.33;10.93;;;;;;;4.63;100.00;100584.41;5082890;28;20097;-75
2023/12/12 03:58:29;;;;;;;42.88;11.80;;;;;;;4.65;100.00;100582.72;5081113;28;20033;-75
2023/12/12 04:00:54;;;;;;;36.22;11.00;;;;;;;4.67;100.00;100579.28;5083825;28;20066;-73
2023/12/12 04:03:19;;;;;;;35.67;11.07;;;;;;;4.69;100.00;100579.34;5076056;28;20036;-68
2023/12/12 04:05:45;;;;;;;38.67;11.23;;;;;;;4.72;100.00;100574.19;5083888;28;20059;-74
2023/12/12 04:08:10;;;;;;;41.78;11.93;;;;;;;4.78;100.00;100573.44;5081500;28;20028;-74
2023/12/12 04:10:36;;;;;;;41.72;11.43;;;;;;;4.77;100.00;100576.91;5081714;28;20122;-71
2023/12/12 04:13:01;;;;;;;41.78;11.80;;;;;;;4.78;100.00;100569.06;5082995;28;20027;-72
2023/12/12 04:15:27;;;;;;;40.40;12.65;;;;;;;4.82;100.00;100573.53;5079505;28;20032;-74
2023/12/12 04:17:52;;;;;;;41.67;12.63;;;;;;;4.86;100.00;100564.91;5083876;28;20032;-71
2023/12/12 04:20:18;;;;;;;46.13;13.60;;;;;;;4.87;100.00;100558.81;5080502;28;20034;-73
2023/12/12 04:22:43;;;;;;;44.45;13.43;;;;;;;4.91;100.00;100561.47;5082629;28;20105;-68
2023/12/12 04:25:11;;;;;;;44.67;13.45;;;;;;;4.93;100.00;100565.03;5081051;28;20119;-74
2023/12/12 04:27:36;;;;;;;42.10;13.38;;;;;;;4.96;100.00;100562.50;5085435;28;20392;-75
2023/12/12 04:30:04;;;;;;;45.58;13.55;;;;;;;4.99;100.00;100567.78;5086273;28;20024;-74
2023/12/12 04:32:30;;;;;;;38.13;13.10;;;;;;;5.02;100.00;100570.47;5083431;28;20036;-73
2023/12/12 04:34:55;;;;;;;43.35;13.00;;;;;;;5.03;100.00;100572.25;5087329;28;20024;-74
2023/12/12 04:37:21;;;;;;;49.80;14.35;;;;;;;5.02;100.00;100560.00;5083678;28;20099;-72
2023/12/12 04:39:46;;;;;;;45.92;13.68;;;;;;;5.04;100.00;100571.41;5086986;28;20463;-70
2023/12/12 04:42:13;;;;;;;39.47;13.15;;;;;;;5.05;100.00;100554.81;5084612;28;20035;-74
2023/12/12 04:44:43;;;;;;;41.45;13.57;;;;;;;5.07;100.00;100561.00;5085303;28;20541;-75
2023/12/12 04:47:08;;;;;;;43.95;13.82;;;;;;;5.07;100.00;100559.25;5085553;28;20416;-74
2023/12/12 04:49:34;;;;;;;43.30;13.82;;;;;;;5.09;100.00;100556.66;5084643;28;20087;-68
2023/12/12 04:52:00;;;;;;;39.78;12.70;;;;;;;5.08;100.00;100552.28;5086234;28;20062;-70
2023/12/12 04:54:25;;;;;;;42.50;12.95;;;;;;;5.07;100.00;100551.41;5083543;28;20468;-74
2023/12/12 04:56:50;;;;;;;43.88;13.05;;;;;;;5.06;100.00;100547.00;5083296;28;20021;-67
2023/12/12 04:59:16;;;;;;;41.00;12.98;;;;;;;5.07;100.00;100537.41;5086143;28;20379;-68
2023/12/12 05:01:42;;;;;;;45.97;13.95;;;;;;;5.08;100.00;100544.41;5084519;28;20493;-71
2023/12/12 05:04:07;;;;;;;41.42;13.10;;;;;;;5.10;100.00;100547.97;5084826;28;20052;-73
2023/12/12 05:06:33;;;;;;;44.67;12.80;;;;;;;5.12;100.00;100541.00;5085349;28;20079;-66
2023/12/12 05:08:58;;;;;;;38.72;12.45;;;;;;;5.13;100.00;100540.16;5083607;28;20036;-70
2023/12/12 05:11:24;;;;;;;42.60;12.45;;;;;;;5.16;100.00;100535.00;5086496;28;20032;-70
2023/12/12 05:13:49;;;;;;;42.03;12.60;;;;;;;5.20;100.00;100539.44;5083120;28;20020;-68
2023/12/12 05:16:15;;;;;;;42.03;12.60;;;;;;;5.23;100.00;100529.03;5085825;28;20531;-69
2023/12/12 05:18:41;;;;;;;46.72;13.52;;;;;;;5.24;100.00;100525.56;5084206;28;20463;-70
2023/12/12 05:21:06;;;;;;;46.53;13.50;;;;;;;5.28;100.00;100525.63;5084521;28;20029;-72
2023/12/12 05:23:31;;;;;;;44.10;12.77;;;;;;;5.29;100.00;100522.16;5085554;28;20028;-71
2023/12/12 05:25:57;;;;;;;43.17;13.48;;;;;;;5.29;100.00;100512.56;5082906;28;20032;-71
2023/12/12 05:28:23;;;;;;;44.10;12.90;;;;;;;5.33;100.00;100513.47;5086607;28;20529;-71
2023/12/12 05:30:49;;;;;;;47.80;13.13;;;;;;;5.34;100.00;100510.00;5082881;28;20123;-67
2023/12/12 05:33:14;;;;;;;42.65;12.93;;;;;;;5.37;100.00;100516.22;5085414;28;20067;-68
2023/12/12 05:35:39;;;;;;;43.60;13.07;;;;;;;5.40;100.00;100520.63;5084279;28;20475;-70
2023/12/12 05:38:06;;;;;;;45.20;13.13;;;;;;;5.43;100.00;100525.91;5082475;28;20024;-73
2023/12/12 05:40:32;;;;;;;43.08;13.25;;;;;;;5.47;100.00;100516.41;5085023;28;20099;-68
2023/12/12 05:42:57;;;;;;;41.72;12.43;;;;;;;5.49;100.00;100514.69;5082717;28;20116;-67
2023/12/12 05:45:23;;;;;;;41.85;12.70;;;;;;;5.52;100.00;100504.25;5085822;28;20112;-68
2023/12/12 05:47:48;;;;;;;43.80;12.75;;;;;;;5.52;100.00;100509.47;5082644;28;20036;-71
2023/12/12 05:50:14;;;;;;;41.35;11.95;;;;;;;5.51;100.00;100512.97;5084636;28;20048;-67
2023/12/12 05:52:39;;;;;;;44.30;12.77;;;;;;;5.54;100.00;100513.91;5082490;28;20093;-68
2023/12/12 05:55:05;;;;;;;41.67;12.13;;;;;;;5.56;100.00;100512.22;5083324;28;20036;-72
2023/12/12 05:57:32;;;;;;;42.83;11.95;;;;;;;5.57;100.00;100516.59;5085092;28;20016;-71
2023/12/12 05:59:58;;;;;;;40.83;11.93;;;;;;;5.59;100.00;100517.53;5082177;28;20033;-74
2023/12/12 06:02:23;;;;;;;43.25;12.10;;;;;;;5.61;100.00;100519.28;5085574;28;20514;-71
2023/12/12 06:04:48;;;;;;;39.85;11.95;;;;;;;5.64;100.00;100514.13;5082526;28;20123;-70
2023/12/12 06:07:14;;;;;;;36.60;11.48;;;;;;;5.64;100.00;100512.38;5084276;28;20116;-71
2023/12/12 06:09:39;;;;;;;42.70;12.18;;;;;;;5.66;100.00;100504.53;5083690;28;20381;-69
2023/12/12 06:12:06;;;;;;;39.80;11.45;;;;;;;5.67;100.00;100506.31;5082974;28;20040;-74
2023/12/12 06:14:31;;;;;;;39.83;11.35;;;;;;;5.67;100.00;100498.44;5084376;28;20035;-69
2023/12/12 06:16:57;;;;;;;40.80;11.45;;;;;;;5.70;100.00;100512.47;5082167;28;20029;-71
2023/12/12 06:19:23;;;;;;;40.90;11.88;;;;;;;5.70;100.00;100498.47;5085132;28;20107;-73
2023/12/12 06:21:52;;;;;;;43.55;12.43;;;;;;;5.73;100.00;100499.41;5081837;28;20578;-69
2023/12/12 06:24:17;;;;;;;37.25;10.93;;;;;;;5.75;100.00;100496.81;5084581;28;20040;-73
2023/12/12 06:26:42;;;;;;;38.55;10.65;;;;;;;5.77;100.00;100495.13;5082669;28;20039;-65
2023/12/12 06:29:09;;;;;;;39.70;11.13;;;;;;;5.76;100.00;100491.59;5083060;28;20032;-66
2023/12/12 06:31:34;;;;;;;39.47;11.15;;;;;;;5.75;100.00;100476.72;5083919;28;20032;-67
2023/12/12 06:33:59;;;;;;;40.60;11.35;;;;;;;5.76;100.00;100482.84;5081786;28;20051;-67
2023/12/12 06:36:25;;;;;;;37.40;10.73;;;;;;;5.79;100.00;100477.66;5083436;28;20032;-71
2023/12/12 06:38:50;;;;;;;37.58;10.35;;;;;;;5.80;100.00;100473.31;5081576;28;20021;-71
2023/12/12 06:41:16;;;;;;;38.72;11.20;;;;;;;5.82;100.00;100468.97;5083795;28;20027;-70
2023/12/12 06:43:42;;;;;;;36.50;10.32;;;;;;;5.84;100.00;100465.53;5082482;28;20036;-73
2023/12/12 06:46:08;;;;;;;36.72;10.25;;;;;;;5.86;100.00;100466.41;5083023;28;20521;-69
2023/12/12 06:48:34;;;;;;;37.78;11.05;;;;;;;5.91;100.00;100458.63;5083149;28;20036;-68
2023/12/12 06:50:59;;;;;;;35.70;10.50;;;;;;;5.92;100.00;100458.66;5081230;28;20381;-73
2023/12/12 06:53:24;;;;;;;37.15;10.07;;;;;;;5.93;100.00;100456.94;5084760;28;20032;-67
2023/12/12 06:55:50;;;;;;;37.75;10.63;;;;;;;5.93;100.00;100447.31;5081126;28;20420;-69
2023/12/12 06:58:16;;;;;;;39.75;10.30;;;;;;;5.91;100.00;100443.78;5083814;28;20028;-70
2023/12/12 07:00:42;;;;;;;35.88;10.63;;;;;;;5.86;100.00;100440.19;5082506;28;20028;-73
2023/12/12 07:03:10;;;;;;;37.30;10.27;;;;;;;5.79;100.00;100440.94;5082533;28;20356;-72
2023/12/12 07:05:36;;;;;;;33.13;9.75;;;;;;;5.80;100.00;100442.72;5083160;28;20027;-69
2023/12/12 07:08:03;;;;;;;37.92;10.07;;;;;;;5.80;100.00;100437.47;5081515;28;20029;-72
2023/12/12 07:10:28;;;;;;;34.10;9.50;;;;;;;5.81;100.00;100435.72;5084178;28;20123;-71
2023/12/12 07:12:55;;;;;;;36.20;9.75;;;;;;;5.81;100.00;100436.63;5081009;28;20072;-68
2023/12/12 07:15:21;;;;;;;36.38;10.27;;;;;;;5.84;100.00;100431.41;5084030;28;20029;-70
2023/12/12 07:17:46;;;;;;;40.15;11.25;;;;;;;5.90;100.00;100439.38;5081395;28;20652;-69
2023/12/12 07:20:12;;;;;;;37.15;10.35;;;;;;;5.90;100.00;100435.88;5083018;28;20483;-73
2023/12/12 07:22:38;;;;;;;38.65;10.32;;;;;;;5.93;100.00;100431.56;5082586;28;20042;-71
2023/12/12 07:25:04;;;;;;;35.10;10.45;;;;;;;6.02;100.00;100433.50;5081666;28;20471;-68
2023/12/12 07:27:29;;;;;;;37.05;10.10;;;;;;;6.06;100.00;100435.31;5083916;28;20028;-71
2023/12/12 07:29:55;;;;;;;40.33;10.68;;;;;;;6.06;100.00;100434.44;5080643;28;20117;-69
2023/12/12 07:32:20;;;;;;;39.03;10.50;;;;;;;6.08;100.00;100432.72;5083910;28;20016;-69
2023/12/12 07:34:46;;;;;;;34.25;9.93;;;;;;;6.09;100.00;100427.47;5081648;28;20046;-68
2023/12/12 07:37:11;;;;;;;36.35;10.20;;;;;;;6.15;100.00;100439.81;5082725;28;20032;-72
2023/12/12 07:39:36;;;;;;;35.38;9.65;;;;;;;6.18;100.00;100434.63;5082681;28;20040;-71
2023/12/12 07:42:02;;;;;;;37.55;9.73;;;;;;;6.21;100.00;100429.41;5081339;28;20033;-68
2023/12/12 07:44:28;;;;;;;35.72;9.85;;;;;;;6.25;100.00;100425.09;5083859;28;20056;-72
2023/12/12 07:46:53;;;;;;;35.78;9.70;;;;;;;6.26;100.00;100426.84;5080679;28;20103;-69
2023/12/12 07:49:19;;;;;;;34.08;9.38;;;;;;;6.26;100.00;100416.34;5083204;28;20176;-68
2023/12/12 07:51:45;;;;;;;36.75;9.73;;;;;;;6.23;100.00;100417.22;5081434;28;20020;-70
2023/12/12 07:54:10;;;;;;;33.78;9.30;;;;;;;6.21;100.00;100412.78;5082425;28;20089;-71
2023/12/12 07:56:35;;;;;;;34.60;9.90;;;;;;;6.21;100.00;100407.53;5082712;28;20077;-70
2023/12/12 07:59:01;;;;;;;35.78;10.30;;;;;;;6.21;100.00;100408.41;5080874;28;20055;-67
2023/12/12 08:01:27;;;;;;;34.58;9.55;;;;;;;6.21;100.00;100397.03;5086519;28;20039;-72
2023/12/12 08:03:52;;;;;;;33.75;9.70;;;;;;;6.26;100.00;100403.22;5084108;28;20037;-72
2023/12/12 08:06:18;;;;;;;32.97;9.60;;;;;;;6.27;100.00;100397.13;5087347;28;20036;-72
2023/12/12 08:08:44;;;;;;;36.58;10.35;;;;;;;6.32;100.00;100398.09;5085409;28;20028;-68
2023/12/12 08:11:15;;;;;;;39.75;10.25;;;;;;;6.39;100.00;100391.16;5085820;28;20485;-68
2023/12/12 08:13:41;;;;;;;37.05;10.40;;;;;;;6.47;100.00;100394.78;5085590;28;20039;-67
2023/12/12 08:16:07;;;;;;;35.17;9.68;;;;;;;6.56;100.00;100389.66;5085481;28;20387;-66
2023/12/12 08:18:32;;;;;;;35.60;9.90;;;;;;;6.60;100.00;100380.09;5086869;28;20036;-66
2023/12/12 08:20:58;;;;;;;35.10;9.90;;;;;;;6.63;100.00;100370.50;5084150;28;20128;-70
2023/12/12 08:23:23;;;;;;;31.45;8.80;;;;;;;6.76;100.00;100374.16;5087777;28;20089;-69
2023/12/12 08:25:49;;;;;;;32.35;8.85;;;;;;;6.89;100.00;100372.56;5084280;28;20028;-71
2023/12/12 08:28:15;;;;;;;32.17;9.00;;;;;;;7.05;100.00;100370.09;5086508;28;20040;-72
2023/12/12 08:30:41;;;;;;;33.03;8.77;;;;;;;7.16;100.00;100360.59;5085729;28;20383;-69
2023/12/12 08:33:06;;;;;;;31.88;8.60;;;;;;;7.30;100.00;100369.50;5083548;28;20024;-74
2023/12/12 08:35:31;;;;;;;31.55;8.73;;;;;;;7.47;100.00;100358.25;5086596;28;20375;-74
2023/12/12 08:37:57;;;;;;;30.67;8.30;;;;;;;7.62;100.00;100347.88;5083738;28;20072;-73
2023/12/12 08:40:22;;;;;;;31.10;8.05;;;;;;;7.75;100.00;100362.03;5087238;28;20032;-74
2023/12/12 08:42:48;;;;;;;28.20;7.72;;;;;;;7.88;100.00;100365.66;5084330;28;20036;-70
2023/12/12 08:45:13;;;;;;;31.13;7.47;;;;;;;8.05;100.00;100365.75;5085905;28;20036;-71
2023/12/12 08:47:38;;;;;;;29.02;7.90;;;;;;;8.10;100.00;100363.19;5085567;28;20478;-74
2023/12/12 08:50:05;;;;;;;29.73;8.07;;;;;;;8.11;100.00;100365.81;5084175;28;20045;-69
2023/12/12 08:52:33;;;;;;;27.48;7.10;;;;;;;8.26;100.00;100362.41;5086516;28;20390;-72
2023/12/12 08:54:58;;;;;;;29.27;7.10;;;;;;;8.46;100.00;100351.09;5083316;28;20047;-74
2023/12/12 08:57:24;;;;;;;25.60;7.10;;;;;;;8.67;100.00;100358.25;5087162;28;20447;-69
2023/12/12 08:59:49;;;;;;;26.52;6.85;;;;;;;8.79;100.00;100352.16;5083703;28;20372;-74
2023/12/12 09:02:16;;;;;;;26.08;6.38;;;;;;;8.96;100.00;100339.91;5085331;28;20114;-72
2023/12/12 09:04:41;;;;;;;23.77;6.00;;;;;;;9.14;100.00;100336.44;5084990;28;20475;-74
2023/12/12 09:07:06;;;;;;;25.05;6.22;;;;;;;9.37;100.00;100318.00;5084321;28;20035;-74
2023/12/12 09:09:32;;;;;;;24.27;5.82;;;;;;;9.57;100.00;100303.94;5085984;28;20024;-74
2023/12/12 09:11:58;;;;;;;23.63;5.78;;;;;;;9.77;100.00;100306.56;5083184;28;20067;-72
2023/12/12 09:14:24;;;;;;;23.65;5.65;;;;;;;9.97;100.00;100289.81;5079180;28;20379;-73
2023/12/12 09:16:49;;;;;;;24.38;5.97;;;;;;;10.14;100.00;100282.75;5085893;28;20032;-73
2023/12/12 09:19:16;;;;;;;23.88;5.70;;;;;;;10.34;100.00;100266.88;5084435;28;20035;-74
2023/12/12 09:21:41;;;;;;;25.42;5.35;;;;;;;10.63;100.00;100263.22;5084553;28;20035;-67
2023/12/12 09:24:07;;;;;;;23.77;5.53;;;;;;;10.76;100.00;100267.56;5085052;28;20095;-74
2023/12/12 09:26:33;;;;;;;23.98;5.00;;;;;;;10.85;100.00;100263.06;5083470;28;20495;-74
2023/12/12 09:28:58;;;;;;;22.48;5.10;;;;;;;10.98;100.00;100267.44;5086146;28;20051;-69
2023/12/12 09:31:26;;;;;;;23.08;5.30;;;;;;;11.24;100.00;100266.34;5078783;28;20024;-68
2023/12/12 09:33:51;;;;;;;20.85;4.70;;;;;;;11.44;100.00;100258.25;5085941;28;20042;-74
2023/12/12 09:36:17;;;;;;;22.25;5.40;;;;;;;11.71;100.00;100259.78;5082104;28;20024;-74
2023/12/12 09:38:42;;;;;;;22.52;5.00;;;;;;;11.93;100.00;100243.69;5084884;28;20124;-74
2023/12/12 09:41:16;;;;;;;22.25;5.50;;;;;;;12.19;100.00;100259.31;5084611;28;20025;-74
2023/12/12 09:43:44;;;;;;;20.90;4.80;;;;;;;12.56;100.00;100250.91;5084171;28;20471;-74
2023/12/12 09:46:09;;;;;;;22.40;4.90;;;;;;;12.67;100.00;100242.81;5084370;28;20483;-74
2023/12/12 09:48:35;;;;;;;20.17;4.65;;;;;;;12.67;100.00;100242.81;5082066;28;20064;-74
2023/12/12 09:51:03;;;;;;;19.00;4.22;;;;;;;12.43;100.00;100236.06;5085265;28;20043;-68
2023/12/12 09:53:30;;;;;;;21.77;4.90;;;;;;;12.06;100.00;100231.19;5082228;28;20096;-71
2023/12/12 09:55:58;;;;;;;20.35;4.50;;;;;;;11.59;100.00;100230.75;5085648;28;20024;-74
2023/12/12 09:58:23;;;;;;;20.30;4.38;;;;;;;11.13;100.00;100224.97;5082440;28;20039;-74
2023/12/12 10:00:51;;;;;;;20.63;4.78;;;;;;;10.92;100.00;100222.50;5084797;28;20028;-73
2023/12/12 10:03:18;;;;;;;21.92;4.63;;;;;;;10.90;100.00;100208.41;5083399;28;20024;-74
2023/12/12 10:05:50;;;;;;;19.40;4.40;;;;;;;11.00;100.00;100210.09;5083930;28;20471;-73
2023/12/12 10:08:18;;;;;;;19.30;4.20;;;;;;;11.17;100.00;100202.03;5082933;28;20032;-67
2023/12/12 10:10:43;;;;;;;19.88;4.40;;;;;;;11.33;100.00;100197.50;5084044;28;20029;-66
2023/12/12 10:13:09;;;;;;;21.05;4.60;;;;;;;11.48;100.00;100192.03;5083913;28;20491;-74
2023/12/12 10:15:34;;;;;;;20.17;4.38;;;;;;;12.07;100.00;100178.19;5082664;28;20055;-73
2023/12/12 10:18:00;;;;;;;20.63;4.30;;;;;;;12.55;100.00;100180.19;5085278;28;20389;-69
2023/12/12 10:20:27;;;;;;;18.13;3.90;;;;;;;12.91;100.00;100176.13;5081720;28;20024;-74
2023/12/12 10:23:04;;;;;;;20.13;4.35;;;;;;;13.30;100.00;100166.66;5084509;28;20028;-74
2023/12/12 10:25:32;;;;;;;18.63;4.15;;;;;;;13.88;100.00;100170.91;5078655;28;20141;-67
2023/12/12 10:27:58;;;;;;;19.33;4.18;;;;;;;14.03;100.00;100163.53;5085251;28;20024;-74
2023/12/12 10:30:23;;;;;;;18.08;3.80;;;;;;;14.33;100.00;100161.13;5081565;28;20441;-73
2023/12/12 10:32:53;;;;;;;18.55;4.07;;;;;;;14.69;100.00;100154.13;5084516;28;20050;-70
2023/12/12 10:35:23;;;;;;;17.58;3.75;;;;;;;14.53;100.00;100158.88;5082495;28;20060;-73
2023/12/12 10:37:52;;;;;;;18.80;4.00;;;;;;;14.58;100.00;100159.66;5080989;28;20036;-74
2023/12/12 10:40:21;;;;;;;17.10;3.72;;;;;;;15.05;100.00;100153.28;5074541;28;20478;-74
2023/12/12 10:42:47;;;;;;;16.05;3.70;;;;;;;15.02;100.00;100156.88;5081371;28;20056;-68
2023/12/12 10:45:14;;;;;;;17.02;3.38;;;;;;;14.61;100.00;100148.97;5079630;28;20064;-74
2023/12/12 10:47:51;;;;;;;17.52;3.47;;;;;;;13.73;100.00;100137.56;5084059;28;20425;-70
2023/12/12 10:50:17;;;;;;;17.15;3.60;;;;;;;13.60;100.00;100147.53;5082648;28;20190;-74
2023/12/12 10:52:45;;;;;;;15.32;3.15;;;;;;;13.60;100.00;100147.53;5083566;28;20046;-71
2023/12/12 10:55:12;;;;;;;15.15;3.35;;;;;;;13.47;100.00;100137.16;5081998;28;20032;-71
2023/12/12 10:57:38;;;;;;;17.35;3.33;;;;;;;12.81;100.00;100142.69;5084073;28;20421;-75
2023/12/12 11:00:11;;;;;;;17.25;3.63;;;;;;;12.35;100.00;100133.66;5081472;28;20116;-72
2023/12/12 11:02:37;;;;;;;;;;;;;;;12.34;100.00;100137.19;5084376;28;20040;-73
2023/12/12 11:05:03;;;;;;;15.98;3.33;;;;;;;11.97;100.00;100120.91;5081013;28;20301;-69